sensor_id;sensor_type;location;lat;lon;timestamp;P1;durP1;ratioP1;P2;durP2;ratioP2
27939;SDS011;15275;51.716;14.324;2023-05-07T00:00:20;8.48;;;5.72;;
27939;SDS011;15275;51.716;14.324;2023-05-07T00:02:46;8.15;;;5.32;;
27939;SDS011;15275;51.716;14.324;2023-05-07T00:05:12;7.63;;;5.60;;
27939;SDS011;15275;51.716;14.324;2023-05-07T00:07:39;7.88;;;5.03;;
27939;SDS011;15275;51.716;14.324;2023-05-07T00:10:05;6.60;;;4.88;;
27939;SDS011;15275;51.716;14.324;2023-05-07T00:12:32;6.07;;;5.15;;
27939;SDS011;15275;51.716;14.324;2023-05-07T00:14:59;7.82;;;5.00;;
27939;SDS011;15275;51.716;14.324;2023-05-07T00:17:27;10.57;;;4.95;;
27939;SDS011;15275;51.716;14.324;2023-05-07T00:19:54;6.97;;;5.07;;
27939;SDS011;15275;51.716;14.324;2023-05-07T00:22:20;5.47;;;4.40;;
27939;SDS011;15275;51.716;14.324;2023-05-07T00:24:46;8.07;;;4.72;;
27939;SDS011;15275;51.716;14.324;2023-05-07T00:27:12;6.78;;;4.25;;
27939;SDS011;15275;51.716;14.324;2023-05-07T00:29:38;5.18;;;4.22;;
27939;SDS011;15275;51.716;14.324;2023-05-07T00:32:04;6.47;;;5.00;;
27939;SDS011;15275;51.716;14.324;2023-05-07T00:34:30;5.13;;;3.60;;
27939;SDS011;15275;51.716;14.324;2023-05-07T00:36:56;6.57;;;4.70;;
27939;SDS011;15275;51.716;14.324;2023-05-07T00:39:22;6.57;;;4.38;;
27939;SDS011;15275;51.716;14.324;2023-05-07T00:41:47;8.52;;;5.40;;
27939;SDS011;15275;51.716;14.324;2023-05-07T00:44:13;8.30;;;4.53;;
27939;SDS011;15275;51.716;14.324;2023-05-07T00:46:39;5.93;;;4.60;;
27939;SDS011;15275;51.716;14.324;2023-05-07T00:49:06;7.07;;;4.53;;
27939;SDS011;15275;51.716;14.324;2023-05-07T00:51:32;10.55;;;5.20;;
27939;SDS011;15275;51.716;14.324;2023-05-07T00:53:59;8.18;;;4.82;;
27939;SDS011;15275;51.716;14.324;2023-05-07T00:56:27;8.10;;;5.53;;
27939;SDS011;15275;51.716;14.324;2023-05-07T00:58:53;7.10;;;4.90;;
27939;SDS011;15275;51.716;14.324;2023-05-07T01:01:19;6.72;;;5.30;;
27939;SDS011;15275;51.716;14.324;2023-05-07T01:03:46;7.82;;;5.72;;
27939;SDS011;15275;51.716;14.324;2023-05-07T01:06:12;9.50;;;4.95;;
27939;SDS011;15275;51.716;14.324;2023-05-07T01:08:41;7.47;;;4.90;;
27939;SDS011;15275;51.716;14.324;2023-05-07T01:11:08;6.28;;;4.68;;
27939;SDS011;15275;51.716;14.324;2023-05-07T01:13:35;8.88;;;5.57;;
27939;SDS011;15275;51.716;14.324;2023-05-07T01:16:02;7.07;;;4.93;;
27939;SDS011;15275;51.716;14.324;2023-05-07T01:18:29;7.35;;;5.55;;
27939;SDS011;15275;51.716;14.324;2023-05-07T01:20:55;8.05;;;5.13;;
27939;SDS011;15275;51.716;14.324;2023-05-07T01:23:23;6.78;;;4.45;;
27939;SDS011;15275;51.716;14.324;2023-05-07T01:25:53;11.55;;;5.85;;
27939;SDS011;15275;51.716;14.324;2023-05-07T01:28:19;7.95;;;5.28;;
27939;SDS011;15275;51.716;14.324;2023-05-07T01:30:47;7.97;;;6.15;;
27939;SDS011;15275;51.716;14.324;2023-05-07T01:33:26;7.43;;;5.38;;
27939;SDS011;15275;51.716;14.324;2023-05-07T01:35:57;6.97;;;5.35;;
27939;SDS011;15275;51.716;14.324;2023-05-07T01:38:29;9.25;;;6.45;;
27939;SDS011;15275;51.716;14.324;2023-05-07T01:40:55;11.18;;;6.68;;
27939;SDS011;15275;51.716;14.324;2023-05-07T01:43:22;9.68;;;6.15;;
27939;SDS011;15275;51.716;14.324;2023-05-07T01:45:48;9.57;;;6.07;;
27939;SDS011;15275;51.716;14.324;2023-05-07T01:48:14;8.50;;;5.90;;
27939;SDS011;15275;51.716;14.324;2023-05-07T01:50:44;12.30;;;7.18;;
27939;SDS011;15275;51.716;14.324;2023-05-07T01:53:10;9.40;;;6.78;;
27939;SDS011;15275;51.716;14.324;2023-05-07T01:55:36;12.25;;;7.30;;
27939;SDS011;15275;51.716;14.324;2023-05-07T01:58:02;9.70;;;6.78;;
27939;SDS011;15275;51.716;14.324;2023-05-07T02:00:28;10.93;;;7.00;;
27939;SDS011;15275;51.716;14.324;2023-05-07T02:02:54;8.68;;;6.47;;
27939;SDS011;15275;51.716;14.324;2023-05-07T02:05:20;9.10;;;6.20;;
27939;SDS011;15275;51.716;14.324;2023-05-07T02:07:46;11.55;;;7.05;;
27939;SDS011;15275;51.716;14.324;2023-05-07T02:10:12;9.38;;;6.65;;
27939;SDS011;15275;51.716;14.324;2023-05-07T02:12:37;10.23;;;6.93;;
27939;SDS011;15275;51.716;14.324;2023-05-07T02:15:03;10.65;;;6.93;;
27939;SDS011;15275;51.716;14.324;2023-05-07T02:17:30;11.85;;;7.65;;
27939;SDS011;15275;51.716;14.324;2023-05-07T02:20:00;12.70;;;7.85;;
27939;SDS011;15275;51.716;14.324;2023-05-07T02:22:26;11.68;;;7.40;;
27939;SDS011;15275;51.716;14.324;2023-05-07T02:24:51;12.70;;;8.70;;
27939;SDS011;15275;51.716;14.324;2023-05-07T02:27:17;13.25;;;8.07;;
27939;SDS011;15275;51.716;14.324;2023-05-07T02:29:43;16.25;;;8.43;;
27939;SDS011;15275;51.716;14.324;2023-05-07T02:32:09;11.13;;;7.75;;
27939;SDS011;15275;51.716;14.324;2023-05-07T02:34:34;10.52;;;8.05;;
27939;SDS011;15275;51.716;14.324;2023-05-07T02:37:00;14.05;;;9.05;;
27939;SDS011;15275;51.716;14.324;2023-05-07T02:39:26;12.30;;;8.75;;
27939;SDS011;15275;51.716;14.324;2023-05-07T02:41:52;14.27;;;8.48;;
27939;SDS011;15275;51.716;14.324;2023-05-07T02:44:18;17.92;;;9.15;;
27939;SDS011;15275;51.716;14.324;2023-05-07T02:46:43;14.05;;;8.70;;
27939;SDS011;15275;51.716;14.324;2023-05-07T02:49:09;12.00;;;8.77;;
27939;SDS011;15275;51.716;14.324;2023-05-07T02:51:35;15.70;;;9.20;;
27939;SDS011;15275;51.716;14.324;2023-05-07T02:54:01;12.52;;;8.10;;
27939;SDS011;15275;51.716;14.324;2023-05-07T02:56:26;13.27;;;8.20;;
27939;SDS011;15275;51.716;14.324;2023-05-07T02:58:52;13.27;;;8.43;;
27939;SDS011;15275;51.716;14.324;2023-05-07T03:01:18;13.55;;;9.13;;
27939;SDS011;15275;51.716;14.324;2023-05-07T03:03:45;14.45;;;9.32;;
27939;SDS011;15275;51.716;14.324;2023-05-07T03:06:11;17.60;;;9.35;;
27939;SDS011;15275;51.716;14.324;2023-05-07T03:08:37;15.98;;;9.65;;
27939;SDS011;15275;51.716;14.324;2023-05-07T03:11:03;14.32;;;9.10;;
27939;SDS011;15275;51.716;14.324;2023-05-07T03:13:28;12.57;;;8.80;;
27939;SDS011;15275;51.716;14.324;2023-05-07T03:15:55;15.05;;;9.00;;
27939;SDS011;15275;51.716;14.324;2023-05-07T03:18:20;14.45;;;9.00;;
27939;SDS011;15275;51.716;14.324;2023-05-07T03:20:47;18.33;;;10.70;;
27939;SDS011;15275;51.716;14.324;2023-05-07T03:23:13;14.02;;;9.30;;
27939;SDS011;15275;51.716;14.324;2023-05-07T03:25:39;18.55;;;9.65;;
27939;SDS011;15275;51.716;14.324;2023-05-07T03:28:05;14.95;;;9.43;;
27939;SDS011;15275;51.716;14.324;2023-05-07T03:30:31;13.77;;;8.80;;
27939;SDS011;15275;51.716;14.324;2023-05-07T03:32:56;15.02;;;9.88;;
27939;SDS011;15275;51.716;14.324;2023-05-07T03:35:22;17.48;;;10.02;;
27939;SDS011;15275;51.716;14.324;2023-05-07T03:37:48;14.10;;;9.57;;
27939;SDS011;15275;51.716;14.324;2023-05-07T03:40:14;16.17;;;10.38;;
27939;SDS011;15275;51.716;14.324;2023-05-07T03:42:40;16.65;;;9.85;;
27939;SDS011;15275;51.716;14.324;2023-05-07T03:45:06;15.70;;;9.88;;
27939;SDS011;15275;51.716;14.324;2023-05-07T03:47:33;14.23;;;9.38;;
27939;SDS011;15275;51.716;14.324;2023-05-07T03:49:59;14.15;;;8.73;;
27939;SDS011;15275;51.716;14.324;2023-05-07T03:52:24;12.57;;;8.68;;
27939;SDS011;15275;51.716;14.324;2023-05-07T03:54:51;18.67;;;9.70;;
27939;SDS011;15275;51.716;14.324;2023-05-07T03:57:18;13.98;;;8.93;;
27939;SDS011;15275;51.716;14.324;2023-05-07T03:59:45;16.63;;;8.60;;
27939;SDS011;15275;51.716;14.324;2023-05-07T04:02:10;13.98;;;8.45;;
27939;SDS011;15275;51.716;14.324;2023-05-07T04:04:36;16.00;;;9.43;;
27939;SDS011;15275;51.716;14.324;2023-05-07T04:07:02;11.77;;;8.18;;
27939;SDS011;15275;51.716;14.324;2023-05-07T04:09:28;14.60;;;8.80;;
27939;SDS011;15275;51.716;14.324;2023-05-07T04:11:54;10.20;;;7.82;;
27939;SDS011;15275;51.716;14.324;2023-05-07T04:14:19;13.35;;;8.80;;
27939;SDS011;15275;51.716;14.324;2023-05-07T04:16:45;17.42;;;8.38;;
27939;SDS011;15275;51.716;14.324;2023-05-07T04:19:11;13.88;;;8.65;;
27939;SDS011;15275;51.716;14.324;2023-05-07T04:21:37;12.80;;;8.48;;
27939;SDS011;15275;51.716;14.324;2023-05-07T04:24:03;14.02;;;8.50;;
27939;SDS011;15275;51.716;14.324;2023-05-07T04:26:29;13.50;;;8.60;;
27939;SDS011;15275;51.716;14.324;2023-05-07T04:28:55;14.73;;;8.07;;
27939;SDS011;15275;51.716;14.324;2023-05-07T04:31:22;14.07;;;8.57;;
27939;SDS011;15275;51.716;14.324;2023-05-07T04:33:48;14.63;;;9.40;;
27939;SDS011;15275;51.716;14.324;2023-05-07T04:36:14;12.18;;;8.25;;
27939;SDS011;15275;51.716;14.324;2023-05-07T04:38:40;14.95;;;8.75;;
27939;SDS011;15275;51.716;14.324;2023-05-07T04:41:06;11.18;;;7.88;;
27939;SDS011;15275;51.716;14.324;2023-05-07T04:43:34;14.82;;;8.52;;
27939;SDS011;15275;51.716;14.324;2023-05-07T04:46:00;13.13;;;8.38;;
27939;SDS011;15275;51.716;14.324;2023-05-07T04:48:25;13.52;;;8.40;;
27939;SDS011;15275;51.716;14.324;2023-05-07T04:50:52;12.77;;;8.40;;
27939;SDS011;15275;51.716;14.324;2023-05-07T04:53:18;13.05;;;7.93;;
27939;SDS011;15275;51.716;14.324;2023-05-07T04:55:44;14.48;;;8.20;;
27939;SDS011;15275;51.716;14.324;2023-05-07T04:58:11;15.05;;;9.10;;
27939;SDS011;15275;51.716;14.324;2023-05-07T05:00:37;15.75;;;10.27;;
27939;SDS011;15275;51.716;14.324;2023-05-07T05:03:04;14.40;;;8.80;;
27939;SDS011;15275;51.716;14.324;2023-05-07T05:05:31;11.60;;;7.95;;
27939;SDS011;15275;51.716;14.324;2023-05-07T05:07:57;13.73;;;9.25;;
27939;SDS011;15275;51.716;14.324;2023-05-07T05:10:23;13.40;;;7.88;;
27939;SDS011;15275;51.716;14.324;2023-05-07T05:12:50;12.18;;;8.15;;
27939;SDS011;15275;51.716;14.324;2023-05-07T05:15:16;14.68;;;9.15;;
27939;SDS011;15275;51.716;14.324;2023-05-07T05:17:41;13.25;;;8.82;;
27939;SDS011;15275;51.716;14.324;2023-05-07T05:20:07;14.00;;;8.70;;
27939;SDS011;15275;51.716;14.324;2023-05-07T05:22:35;10.43;;;7.18;;
27939;SDS011;15275;51.716;14.324;2023-05-07T05:25:01;9.35;;;7.05;;
27939;SDS011;15275;51.716;14.324;2023-05-07T05:27:28;11.13;;;7.30;;
27939;SDS011;15275;51.716;14.324;2023-05-07T05:29:54;12.05;;;7.63;;
27939;SDS011;15275;51.716;14.324;2023-05-07T05:32:20;10.38;;;7.07;;
27939;SDS011;15275;51.716;14.324;2023-05-07T05:34:47;9.32;;;6.72;;
27939;SDS011;15275;51.716;14.324;2023-05-07T05:37:13;12.60;;;8.32;;
27939;SDS011;15275;51.716;14.324;2023-05-07T05:39:39;12.80;;;8.63;;
27939;SDS011;15275;51.716;14.324;2023-05-07T05:42:05;11.75;;;7.95;;
27939;SDS011;15275;51.716;14.324;2023-05-07T05:44:31;12.05;;;7.45;;
27939;SDS011;15275;51.716;14.324;2023-05-07T05:46:56;16.83;;;8.00;;
27939;SDS011;15275;51.716;14.324;2023-05-07T05:49:24;11.18;;;7.63;;
27939;SDS011;15275;51.716;14.324;2023-05-07T05:51:50;12.38;;;8.02;;
27939;SDS011;15275;51.716;14.324;2023-05-07T05:54:16;13.50;;;7.78;;
27939;SDS011;15275;51.716;14.324;2023-05-07T05:56:42;12.00;;;7.72;;
27939;SDS011;15275;51.716;14.324;2023-05-07T05:59:08;10.02;;;6.93;;
27939;SDS011;15275;51.716;14.324;2023-05-07T06:01:34;10.60;;;7.25;;
27939;SDS011;15275;51.716;14.324;2023-05-07T06:03:59;12.52;;;7.82;;
27939;SDS011;15275;51.716;14.324;2023-05-07T06:06:25;12.60;;;7.78;;
27939;SDS011;15275;51.716;14.324;2023-05-07T06:08:52;11.07;;;7.82;;
27939;SDS011;15275;51.716;14.324;2023-05-07T06:11:18;11.68;;;8.10;;
27939;SDS011;15275;51.716;14.324;2023-05-07T06:13:43;12.80;;;8.32;;
27939;SDS011;15275;51.716;14.324;2023-05-07T06:16:09;10.40;;;7.15;;
27939;SDS011;15275;51.716;14.324;2023-05-07T06:18:35;14.00;;;7.97;;
27939;SDS011;15275;51.716;14.324;2023-05-07T06:21:01;11.85;;;8.55;;
27939;SDS011;15275;51.716;14.324;2023-05-07T06:23:27;12.13;;;8.02;;
27939;SDS011;15275;51.716;14.324;2023-05-07T06:25:53;16.17;;;8.05;;
27939;SDS011;15275;51.716;14.324;2023-05-07T06:28:18;9.98;;;7.90;;
27939;SDS011;15275;51.716;14.324;2023-05-07T06:30:45;13.02;;;8.93;;
27939;SDS011;15275;51.716;14.324;2023-05-07T06:33:10;9.43;;;7.35;;
27939;SDS011;15275;51.716;14.324;2023-05-07T06:35:36;12.75;;;7.57;;
27939;SDS011;15275;51.716;14.324;2023-05-07T06:38:02;10.57;;;7.97;;
27939;SDS011;15275;51.716;14.324;2023-05-07T06:40:28;9.65;;;7.32;;
27939;SDS011;15275;51.716;14.324;2023-05-07T06:42:54;11.52;;;8.02;;
27939;SDS011;15275;51.716;14.324;2023-05-07T06:45:20;11.25;;;7.40;;
27939;SDS011;15275;51.716;14.324;2023-05-07T06:47:45;11.13;;;7.90;;
27939;SDS011;15275;51.716;14.324;2023-05-07T06:50:11;14.52;;;7.95;;
27939;SDS011;15275;51.716;14.324;2023-05-07T06:52:37;10.43;;;7.50;;
27939;SDS011;15275;51.716;14.324;2023-05-07T06:55:03;11.10;;;7.38;;
27939;SDS011;15275;51.716;14.324;2023-05-07T06:57:30;11.25;;;7.90;;
27939;SDS011;15275;51.716;14.324;2023-05-07T06:59:56;12.55;;;7.90;;
27939;SDS011;15275;51.716;14.324;2023-05-07T07:02:21;11.57;;;6.88;;
27939;SDS011;15275;51.716;14.324;2023-05-07T07:04:47;10.90;;;6.93;;
27939;SDS011;15275;51.716;14.324;2023-05-07T07:07:13;13.35;;;7.28;;
27939;SDS011;15275;51.716;14.324;2023-05-07T07:09:39;11.00;;;7.50;;
27939;SDS011;15275;51.716;14.324;2023-05-07T07:12:05;12.57;;;8.30;;
27939;SDS011;15275;51.716;14.324;2023-05-07T07:14:31;10.85;;;7.00;;
27939;SDS011;15275;51.716;14.324;2023-05-07T07:16:56;13.30;;;7.93;;
27939;SDS011;15275;51.716;14.324;2023-05-07T07:19:22;12.73;;;7.45;;
27939;SDS011;15275;51.716;14.324;2023-05-07T07:21:48;13.55;;;7.70;;
27939;SDS011;15275;51.716;14.324;2023-05-07T07:24:14;12.02;;;7.35;;
27939;SDS011;15275;51.716;14.324;2023-05-07T07:26:46;10.27;;;7.32;;
27939;SDS011;15275;51.716;14.324;2023-05-07T07:29:12;12.77;;;8.13;;
27939;SDS011;15275;51.716;14.324;2023-05-07T07:31:38;11.77;;;7.57;;
27939;SDS011;15275;51.716;14.324;2023-05-07T07:34:04;14.00;;;7.97;;
27939;SDS011;15275;51.716;14.324;2023-05-07T07:36:30;15.30;;;7.85;;
27939;SDS011;15275;51.716;14.324;2023-05-07T07:38:55;12.25;;;7.38;;
27939;SDS011;15275;51.716;14.324;2023-05-07T07:41:21;11.32;;;7.35;;
27939;SDS011;15275;51.716;14.324;2023-05-07T07:43:47;10.40;;;7.25;;
27939;SDS011;15275;51.716;14.324;2023-05-07T07:46:13;9.15;;;6.47;;
27939;SDS011;15275;51.716;14.324;2023-05-07T07:48:39;9.55;;;6.88;;
27939;SDS011;15275;51.716;14.324;2023-05-07T07:51:04;9.05;;;6.32;;
27939;SDS011;15275;51.716;14.324;2023-05-07T07:53:30;11.82;;;6.85;;
27939;SDS011;15275;51.716;14.324;2023-05-07T07:55:56;12.32;;;7.38;;
27939;SDS011;15275;51.716;14.324;2023-05-07T07:58:22;9.52;;;6.70;;
27939;SDS011;15275;51.716;14.324;2023-05-07T08:00:49;10.75;;;6.40;;
27939;SDS011;15275;51.716;14.324;2023-05-07T08:03:16;9.85;;;6.80;;
27939;SDS011;15275;51.716;14.324;2023-05-07T08:05:42;11.23;;;7.00;;
27939;SDS011;15275;51.716;14.324;2023-05-07T08:08:08;8.95;;;6.20;;
27939;SDS011;15275;51.716;14.324;2023-05-07T08:10:34;9.30;;;6.43;;
27939;SDS011;15275;51.716;14.324;2023-05-07T08:13:03;9.35;;;6.20;;
27939;SDS011;15275;51.716;14.324;2023-05-07T08:15:29;8.70;;;6.03;;
27939;SDS011;15275;51.716;14.324;2023-05-07T08:17:55;7.15;;;5.20;;
27939;SDS011;15275;51.716;14.324;2023-05-07T08:20:28;8.98;;;5.32;;
27939;SDS011;15275;51.716;14.324;2023-05-07T08:22:54;7.13;;;5.55;;
27939;SDS011;15275;51.716;14.324;2023-05-07T08:25:20;6.90;;;5.32;;
27939;SDS011;15275;51.716;14.324;2023-05-07T08:27:46;9.02;;;5.05;;
27939;SDS011;15275;51.716;14.324;2023-05-07T08:30:12;8.45;;;5.85;;
27939;SDS011;15275;51.716;14.324;2023-05-07T08:32:38;7.20;;;4.85;;
27939;SDS011;15275;51.716;14.324;2023-05-07T08:35:04;7.97;;;4.90;;
27939;SDS011;15275;51.716;14.324;2023-05-07T08:37:31;7.75;;;4.90;;
27939;SDS011;15275;51.716;14.324;2023-05-07T08:39:56;6.53;;;4.60;;
27939;SDS011;15275;51.716;14.324;2023-05-07T08:42:23;7.38;;;4.78;;
27939;SDS011;15275;51.716;14.324;2023-05-07T08:44:51;8.05;;;4.97;;
27939;SDS011;15275;51.716;14.324;2023-05-07T08:47:22;12.02;;;5.00;;
27939;SDS011;15275;51.716;14.324;2023-05-07T08:49:54;5.90;;;4.15;;
27939;SDS011;15275;51.716;14.324;2023-05-07T08:52:20;7.60;;;4.22;;
27939;SDS011;15275;51.716;14.324;2023-05-07T08:54:46;7.57;;;4.43;;
27939;SDS011;15275;51.716;14.324;2023-05-07T08:57:12;6.20;;;4.00;;
27939;SDS011;15275;51.716;14.324;2023-05-07T08:59:39;6.22;;;4.22;;
27939;SDS011;15275;51.716;14.324;2023-05-07T09:02:06;4.68;;;3.22;;
27939;SDS011;15275;51.716;14.324;2023-05-07T09:04:35;5.85;;;3.92;;
27939;SDS011;15275;51.716;14.324;2023-05-07T09:07:01;4.47;;;3.72;;
27939;SDS011;15275;51.716;14.324;2023-05-07T09:09:31;3.92;;;3.53;;
27939;SDS011;15275;51.716;14.324;2023-05-07T09:11:58;4.85;;;2.97;;
27939;SDS011;15275;51.716;14.324;2023-05-07T09:14:24;6.20;;;3.75;;
27939;SDS011;15275;51.716;14.324;2023-05-07T09:16:53;5.88;;;3.40;;
27939;SDS011;15275;51.716;14.324;2023-05-07T09:19:23;4.22;;;3.33;;
27939;SDS011;15275;51.716;14.324;2023-05-07T09:21:57;5.40;;;3.38;;
27939;SDS011;15275;51.716;14.324;2023-05-07T09:24:27;5.68;;;3.92;;
27939;SDS011;15275;51.716;14.324;2023-05-07T09:26:58;6.35;;;3.03;;
27939;SDS011;15275;51.716;14.324;2023-05-07T09:29:26;4.07;;;3.17;;
27939;SDS011;15275;51.716;14.324;2023-05-07T09:31:55;5.78;;;3.28;;
27939;SDS011;15275;51.716;14.324;2023-05-07T09:34:21;5.53;;;2.85;;
27939;SDS011;15275;51.716;14.324;2023-05-07T09:36:47;4.38;;;3.13;;
27939;SDS011;15275;51.716;14.324;2023-05-07T09:39:13;5.07;;;3.72;;
27939;SDS011;15275;51.716;14.324;2023-05-07T09:41:48;3.47;;;3.13;;
27939;SDS011;15275;51.716;14.324;2023-05-07T09:44:15;3.97;;;3.03;;
27939;SDS011;15275;51.716;14.324;2023-05-07T09:46:42;3.72;;;3.33;;
27939;SDS011;15275;51.716;14.324;2023-05-07T09:49:12;5.40;;;3.92;;
27939;SDS011;15275;51.716;14.324;2023-05-07T09:51:48;3.28;;;2.92;;
27939;SDS011;15275;51.716;14.324;2023-05-07T09:54:16;5.13;;;3.53;;
27939;SDS011;15275;51.716;14.324;2023-05-07T09:56:43;6.53;;;3.67;;
27939;SDS011;15275;51.716;14.324;2023-05-07T09:59:12;4.10;;;3.60;;
27939;SDS011;15275;51.716;14.324;2023-05-07T10:01:41;5.18;;;3.78;;
27939;SDS011;15275;51.716;14.324;2023-05-07T10:04:09;5.60;;;3.97;;
27939;SDS011;15275;51.716;14.324;2023-05-07T10:06:36;4.88;;;3.58;;
27939;SDS011;15275;51.716;14.324;2023-05-07T10:09:03;5.95;;;4.30;;
27939;SDS011;15275;51.716;14.324;2023-05-07T10:11:36;6.95;;;4.40;;
27939;SDS011;15275;51.716;14.324;2023-05-07T10:14:02;6.82;;;4.80;;
27939;SDS011;15275;51.716;14.324;2023-05-07T10:16:31;8.80;;;4.10;;
27939;SDS011;15275;51.716;14.324;2023-05-07T10:19:02;7.32;;;4.90;;
27939;SDS011;15275;51.716;14.324;2023-05-07T10:21:35;13.98;;;7.43;;
27939;SDS011;15275;51.716;14.324;2023-05-07T10:26:42;11.95;;;6.97;;
27939;SDS011;15275;51.716;14.324;2023-05-07T10:29:12;10.93;;;6.53;;
27939;SDS011;15275;51.716;14.324;2023-05-07T10:32:07;15.98;;;9.60;;
27939;SDS011;15275;51.716;14.324;2023-05-07T10:35:05;9.52;;;7.10;;
27939;SDS011;15275;51.716;14.324;2023-05-07T10:37:37;8.32;;;5.78;;
27939;SDS011;15275;51.716;14.324;2023-05-07T10:40:03;6.25;;;4.28;;
27939;SDS011;15275;51.716;14.324;2023-05-07T10:42:32;5.40;;;4.45;;
27939;SDS011;15275;51.716;14.324;2023-05-07T10:44:57;6.32;;;4.05;;
27939;SDS011;15275;51.716;14.324;2023-05-07T10:50:37;7.38;;;4.22;;
27939;SDS011;15275;51.716;14.324;2023-05-07T10:55:46;5.35;;;3.90;;
27939;SDS011;15275;51.716;14.324;2023-05-07T11:00:57;7.15;;;5.15;;
27939;SDS011;15275;51.716;14.324;2023-05-07T11:03:27;5.13;;;4.05;;
27939;SDS011;15275;51.716;14.324;2023-05-07T11:06:09;5.80;;;4.03;;
27939;SDS011;15275;51.716;14.324;2023-05-07T11:08:58;4.40;;;3.50;;
27939;SDS011;15275;51.716;14.324;2023-05-07T11:17:10;4.53;;;3.83;;
27939;SDS011;15275;51.716;14.324;2023-05-07T11:25:00;3.88;;;3.17;;
27939;SDS011;15275;51.716;14.324;2023-05-07T11:27:31;5.15;;;3.20;;
27939;SDS011;15275;51.716;14.324;2023-05-07T11:29:58;4.68;;;3.67;;
27939;SDS011;15275;51.716;14.324;2023-05-07T11:32:26;8.00;;;3.70;;
27939;SDS011;15275;51.716;14.324;2023-05-07T11:34:57;6.07;;;3.90;;
27939;SDS011;15275;51.716;14.324;2023-05-07T11:37:25;4.30;;;3.50;;
27939;SDS011;15275;51.716;14.324;2023-05-07T11:40:04;8.82;;;3.20;;
27939;SDS011;15275;51.716;14.324;2023-05-07T11:42:33;7.47;;;4.32;;
27939;SDS011;15275;51.716;14.324;2023-05-07T11:45:02;4.82;;;3.40;;
27939;SDS011;15275;51.716;14.324;2023-05-07T11:47:30;3.80;;;3.42;;
27939;SDS011;15275;51.716;14.324;2023-05-07T11:49:57;6.10;;;3.97;;
27939;SDS011;15275;51.716;14.324;2023-05-07T11:52:30;4.57;;;3.55;;
27939;SDS011;15275;51.716;14.324;2023-05-07T11:54:57;6.50;;;4.50;;
27939;SDS011;15275;51.716;14.324;2023-05-07T11:57:25;7.93;;;4.07;;
27939;SDS011;15275;51.716;14.324;2023-05-07T11:59:52;5.10;;;3.90;;
27939;SDS011;15275;51.716;14.324;2023-05-07T12:02:22;5.80;;;3.88;;
27939;SDS011;15275;51.716;14.324;2023-05-07T12:04:53;4.55;;;3.92;;
27939;SDS011;15275;51.716;14.324;2023-05-07T12:07:19;4.05;;;3.65;;
27939;SDS011;15275;51.716;14.324;2023-05-07T12:09:46;4.82;;;3.65;;
27939;SDS011;15275;51.716;14.324;2023-05-07T12:12:13;6.07;;;3.47;;
27939;SDS011;15275;51.716;14.324;2023-05-07T12:14:41;5.35;;;3.13;;
27939;SDS011;15275;51.716;14.324;2023-05-07T12:17:08;3.10;;;2.75;;
27939;SDS011;15275;51.716;14.324;2023-05-07T12:19:36;7.22;;;3.22;;
27939;SDS011;15275;51.716;14.324;2023-05-07T12:22:04;3.53;;;3.00;;
27939;SDS011;15275;51.716;14.324;2023-05-07T12:27:28;3.22;;;2.92;;
27939;SDS011;15275;51.716;14.324;2023-05-07T12:29:56;5.80;;;3.78;;
27939;SDS011;15275;51.716;14.324;2023-05-07T12:32:24;4.20;;;3.15;;
27939;SDS011;15275;51.716;14.324;2023-05-07T12:34:50;5.72;;;3.45;;
27939;SDS011;15275;51.716;14.324;2023-05-07T12:37:16;5.05;;;3.55;;
27939;SDS011;15275;51.716;14.324;2023-05-07T12:40:10;3.97;;;3.13;;
27939;SDS011;15275;51.716;14.324;2023-05-07T12:42:36;3.97;;;3.25;;
27939;SDS011;15275;51.716;14.324;2023-05-07T12:45:11;4.60;;;3.47;;
27939;SDS011;15275;51.716;14.324;2023-05-07T12:47:46;4.57;;;3.35;;
27939;SDS011;15275;51.716;14.324;2023-05-07T12:50:16;4.68;;;3.33;;
27939;SDS011;15275;51.716;14.324;2023-05-07T12:52:45;4.10;;;3.28;;
27939;SDS011;15275;51.716;14.324;2023-05-07T12:55:16;3.42;;;2.95;;
27939;SDS011;15275;51.716;14.324;2023-05-07T12:57:43;3.78;;;3.17;;
27939;SDS011;15275;51.716;14.324;2023-05-07T13:00:16;3.97;;;3.03;;
27939;SDS011;15275;51.716;14.324;2023-05-07T13:02:43;5.00;;;3.58;;
27939;SDS011;15275;51.716;14.324;2023-05-07T13:05:10;3.47;;;3.08;;
27939;SDS011;15275;51.716;14.324;2023-05-07T13:07:36;4.93;;;3.53;;
27939;SDS011;15275;51.716;14.324;2023-05-07T13:10:02;4.00;;;3.33;;
27939;SDS011;15275;51.716;14.324;2023-05-07T13:12:29;3.90;;;3.00;;
27939;SDS011;15275;51.716;14.324;2023-05-07T13:14:55;4.28;;;3.63;;
27939;SDS011;15275;51.716;14.324;2023-05-07T13:17:21;4.03;;;3.47;;
27939;SDS011;15275;51.716;14.324;2023-05-07T13:19:47;3.88;;;3.42;;
27939;SDS011;15275;51.716;14.324;2023-05-07T13:22:12;4.85;;;4.00;;
27939;SDS011;15275;51.716;14.324;2023-05-07T13:24:38;4.75;;;3.85;;
27939;SDS011;15275;51.716;14.324;2023-05-07T13:27:06;4.75;;;3.92;;
27939;SDS011;15275;51.716;14.324;2023-05-07T13:29:32;4.35;;;3.63;;
27939;SDS011;15275;51.716;14.324;2023-05-07T13:31:58;4.32;;;3.70;;
27939;SDS011;15275;51.716;14.324;2023-05-07T13:34:24;5.15;;;4.07;;
27939;SDS011;15275;51.716;14.324;2023-05-07T13:36:50;4.32;;;3.92;;
27939;SDS011;15275;51.716;14.324;2023-05-07T13:39:16;6.05;;;3.90;;
27939;SDS011;15275;51.716;14.324;2023-05-07T13:41:42;4.82;;;3.92;;
27939;SDS011;15275;51.716;14.324;2023-05-07T13:44:08;5.32;;;3.85;;
27939;SDS011;15275;51.716;14.324;2023-05-07T13:46:34;4.20;;;3.80;;
27939;SDS011;15275;51.716;14.324;2023-05-07T13:48:59;6.32;;;4.05;;
27939;SDS011;15275;51.716;14.324;2023-05-07T13:51:25;6.10;;;3.60;;
27939;SDS011;15275;51.716;14.324;2023-05-07T13:53:51;5.47;;;4.47;;
27939;SDS011;15275;51.716;14.324;2023-05-07T13:56:19;5.45;;;4.93;;
27939;SDS011;15275;51.716;14.324;2023-05-07T13:58:46;5.78;;;3.95;;
27939;SDS011;15275;51.716;14.324;2023-05-07T14:01:11;6.13;;;4.30;;
27939;SDS011;15275;51.716;14.324;2023-05-07T14:03:37;4.50;;;3.78;;
27939;SDS011;15275;51.716;14.324;2023-05-07T14:06:04;4.18;;;3.67;;
27939;SDS011;15275;51.716;14.324;2023-05-07T14:08:30;8.27;;;3.85;;
27939;SDS011;15275;51.716;14.324;2023-05-07T14:10:56;5.55;;;4.53;;
27939;SDS011;15275;51.716;14.324;2023-05-07T14:13:22;4.80;;;4.00;;
27939;SDS011;15275;51.716;14.324;2023-05-07T14:15:48;4.47;;;4.07;;
27939;SDS011;15275;51.716;14.324;2023-05-07T14:18:14;4.70;;;4.18;;
27939;SDS011;15275;51.716;14.324;2023-05-07T14:20:41;5.47;;;4.53;;
27939;SDS011;15275;51.716;14.324;2023-05-07T14:23:11;5.20;;;4.20;;
27939;SDS011;15275;51.716;14.324;2023-05-07T14:25:37;5.18;;;4.32;;
27939;SDS011;15275;51.716;14.324;2023-05-07T14:28:03;8.15;;;4.63;;
27939;SDS011;15275;51.716;14.324;2023-05-07T14:30:29;4.57;;;4.10;;
27939;SDS011;15275;51.716;14.324;2023-05-07T14:32:55;4.30;;;3.72;;
27939;SDS011;15275;51.716;14.324;2023-05-07T14:35:20;4.10;;;3.20;;
27939;SDS011;15275;51.716;14.324;2023-05-07T14:37:46;3.88;;;3.47;;
27939;SDS011;15275;51.716;14.324;2023-05-07T14:40:12;8.68;;;4.40;;
27939;SDS011;15275;51.716;14.324;2023-05-07T14:42:39;5.15;;;3.83;;
27939;SDS011;15275;51.716;14.324;2023-05-07T14:45:05;5.95;;;3.75;;
27939;SDS011;15275;51.716;14.324;2023-05-07T14:47:32;5.40;;;4.32;;
27939;SDS011;15275;51.716;14.324;2023-05-07T14:49:58;5.50;;;4.18;;
27939;SDS011;15275;51.716;14.324;2023-05-07T14:52:25;4.70;;;4.00;;